sensor_id;sensor_type;location;lat;lon;timestamp;temperature;humidity
33564;DHT22;19894;48.452;11.494;2023-03-16T00:02:00;18.50;35.20
33564;DHT22;19894;48.452;11.494;2023-03-16T00:04:26;18.40;35.30
33564;DHT22;19894;48.452;11.494;2023-03-16T00:06:51;18.50;35.30
33564;DHT22;19894;48.452;11.494;2023-03-16T00:09:17;18.50;35.30
33564;DHT22;19894;48.452;11.494;2023-03-16T00:11:42;18.50;35.30
33564;DHT22;19894;48.452;11.494;2023-03-16T00:14:08;18.40;35.20
33564;DHT22;19894;48.452;11.494;2023-03-16T00:16:33;18.40;35.20
33564;DHT22;19894;48.452;11.494;2023-03-16T00:19:00;18.40;35.20
33564;DHT22;19894;48.452;11.494;2023-03-16T00:21:28;18.40;35.20
33564;DHT22;19894;48.452;11.494;2023-03-16T00:23:59;18.40;35.20
33564;DHT22;19894;48.452;11.494;2023-03-16T00:26:27;18.40;35.20
33564;DHT22;19894;48.452;11.494;2023-03-16T00:28:53;18.40;35.20
33564;DHT22;19894;48.452;11.494;2023-03-16T00:31:18;18.40;35.20
33564;DHT22;19894;48.452;11.494;2023-03-16T00:33:44;18.40;35.20
33564;DHT22;19894;48.452;11.494;2023-03-16T00:36:10;18.40;35.20
33564;DHT22;19894;48.452;11.494;2023-03-16T00:38:40;18.40;35.20
33564;DHT22;19894;48.452;11.494;2023-03-16T00:41:09;18.40;35.20
33564;DHT22;19894;48.452;11.494;2023-03-16T00:43:36;18.40;35.20
33564;DHT22;19894;48.452;11.494;2023-03-16T00:46:11;18.40;35.20
33564;DHT22;19894;48.452;11.494;2023-03-16T00:48:41;18.40;35.10
33564;DHT22;19894;48.452;11.494;2023-03-16T00:51:11;18.40;35.00
33564;DHT22;19894;48.452;11.494;2023-03-16T00:53:38;18.40;35.00
33564;DHT22;19894;48.452;11.494;2023-03-16T00:56:05;18.40;35.00
33564;DHT22;19894;48.452;11.494;2023-03-16T00:58:36;18.50;34.90
33564;DHT22;19894;48.452;11.494;2023-03-16T01:01:06;18.50;35.00
33564;DHT22;19894;48.452;11.494;2023-03-16T01:03:33;18.50;35.10
33564;DHT22;19894;48.452;11.494;2023-03-16T01:06:03;18.50;35.10
33564;DHT22;19894;48.452;11.494;2023-03-16T01:08:30;18.40;35.10
33564;DHT22;19894;48.452;11.494;2023-03-16T01:11:07;18.40;35.10
33564;DHT22;19894;48.452;11.494;2023-03-16T01:13:35;18.50;35.10
33564;DHT22;19894;48.452;11.494;2023-03-16T01:16:00;18.40;35.00
33564;DHT22;19894;48.452;11.494;2023-03-16T01:18:27;18.40;35.10
33564;DHT22;19894;48.452;11.494;2023-03-16T01:20:52;18.40;35.00
33564;DHT22;19894;48.452;11.494;2023-03-16T01:23:19;18.50;35.10
33564;DHT22;19894;48.452;11.494;2023-03-16T01:25:46;18.40;35.10
33564;DHT22;19894;48.452;11.494;2023-03-16T01:28:22;18.40;35.10
33564;DHT22;19894;48.452;11.494;2023-03-16T01:30:49;18.40;35.10
33564;DHT22;19894;48.452;11.494;2023-03-16T01:33:19;18.40;35.10
33564;DHT22;19894;48.452;11.494;2023-03-16T01:35:57;18.40;35.10
33564;DHT22;19894;48.452;11.494;2023-03-16T01:38:23;18.40;35.00
33564;DHT22;19894;48.452;11.494;2023-03-16T01:40:50;18.40;35.00
33564;DHT22;19894;48.452;11.494;2023-03-16T01:43:17;18.40;35.00
33564;DHT22;19894;48.452;11.494;2023-03-16T01:48:57;18.40;34.90
33564;DHT22;19894;48.452;11.494;2023-03-16T01:54:24;18.40;34.80
33564;DHT22;19894;48.452;11.494;2023-03-16T02:00:22;18.40;34.70
33564;DHT22;19894;48.452;11.494;2023-03-16T02:02:26;18.40;34.70
33564;DHT22;19894;48.452;11.494;2023-03-16T02:05:03;18.40;34.80
33564;DHT22;19894;48.452;11.494;2023-03-16T02:07:33;18.40;34.80
33564;DHT22;19894;48.452;11.494;2023-03-16T02:10:00;18.40;34.80
33564;DHT22;19894;48.452;11.494;2023-03-16T02:12:27;18.40;34.90
33564;DHT22;19894;48.452;11.494;2023-03-16T02:14:53;18.40;34.90
33564;DHT22;19894;48.452;11.494;2023-03-16T02:17:22;18.40;34.80
33564;DHT22;19894;48.452;11.494;2023-03-16T02:19:59;18.40;34.90
33564;DHT22;19894;48.452;11.494;2023-03-16T02:22:45;18.40;34.90
33564;DHT22;19894;48.452;11.494;2023-03-16T02:25:14;18.40;34.80
33564;DHT22;19894;48.452;11.494;2023-03-16T02:27:59;18.40;34.90
33564;DHT22;19894;48.452;11.494;2023-03-16T02:30:29;18.40;34.80
33564;DHT22;19894;48.452;11.494;2023-03-16T02:32:55;18.40;34.90
33564;DHT22;19894;48.452;11.494;2023-03-16T02:35:21;18.40;34.90
33564;DHT22;19894;48.452;11.494;2023-03-16T02:37:46;18.40;34.90
33564;DHT22;19894;48.452;11.494;2023-03-16T02:40:22;18.40;34.80
33564;DHT22;19894;48.452;11.494;2023-03-16T02:42:54;18.40;34.80
33564;DHT22;19894;48.452;11.494;2023-03-16T02:45:23;18.40;34.80
33564;DHT22;19894;48.452;11.494;2023-03-16T02:47:52;18.40;34.80
33564;DHT22;19894;48.452;11.494;2023-03-16T02:50:19;18.40;34.80
33564;DHT22;19894;48.452;11.494;2023-03-16T02:52:45;18.40;34.70
33564;DHT22;19894;48.452;11.494;2023-03-16T02:55:12;18.40;34.60
33564;DHT22;19894;48.452;11.494;2023-03-16T02:57:38;18.40;34.50
33564;DHT22;19894;48.452;11.494;2023-03-16T03:00:04;18.40;34.50
33564;DHT22;19894;48.452;11.494;2023-03-16T03:02:35;18.40;35.00
33564;DHT22;19894;48.452;11.494;2023-03-16T03:05:01;18.40;34.50
33564;DHT22;19894;48.452;11.494;2023-03-16T03:07:27;18.40;34.50
33564;DHT22;19894;48.452;11.494;2023-03-16T03:09:56;18.40;34.60
33564;DHT22;19894;48.452;11.494;2023-03-16T03:12:22;18.40;34.70
33564;DHT22;19894;48.452;11.494;2023-03-16T03:14:47;18.40;34.60
33564;DHT22;19894;48.452;11.494;2023-03-16T03:17:13;18.40;34.70
33564;DHT22;19894;48.452;11.494;2023-03-16T03:19:38;18.40;34.60
33564;DHT22;19894;48.452;11.494;2023-03-16T03:22:04;18.40;34.60
33564;DHT22;19894;48.452;11.494;2023-03-16T03:24:31;18.40;34.70
33564;DHT22;19894;48.452;11.494;2023-03-16T03:26:58;18.40;34.70
33564;DHT22;19894;48.452;11.494;2023-03-16T03:29:26;18.40;34.60
33564;DHT22;19894;48.452;11.494;2023-03-16T03:32:02;18.40;34.70
33564;DHT22;19894;48.452;11.494;2023-03-16T03:34:29;18.40;34.70
33564;DHT22;19894;48.452;11.494;2023-03-16T03:36:56;18.40;34.70
33564;DHT22;19894;48.452;11.494;2023-03-16T03:39:22;18.40;34.60
33564;DHT22;19894;48.452;11.494;2023-03-16T03:41:48;18.40;34.60
33564;DHT22;19894;48.452;11.494;2023-03-16T03:44:14;18.40;34.60
33564;DHT22;19894;48.452;11.494;2023-03-16T03:46:39;18.40;34.50
33564;DHT22;19894;48.452;11.494;2023-03-16T03:49:05;18.40;35.00
33564;DHT22;19894;48.452;11.494;2023-03-16T03:51:31;18.40;34.50
33564;DHT22;19894;48.452;11.494;2023-03-16T03:53:58;18.40;34.50
33564;DHT22;19894;48.452;11.494;2023-03-16T03:56:24;18.40;34.40
33564;DHT22;19894;48.452;11.494;2023-03-16T03:58:50;18.40;34.40
33564;DHT22;19894;48.452;11.494;2023-03-16T04:01:15;18.40;34.30
33564;DHT22;19894;48.452;11.494;2023-03-16T04:03:41;18.40;34.30
33564;DHT22;19894;48.452;11.494;2023-03-16T04:06:07;18.40;34.20
33564;DHT22;19894;48.452;11.494;2023-03-16T04:08:33;18.40;34.30
33564;DHT22;19894;48.452;11.494;2023-03-16T04:10:59;18.40;34.30
33564;DHT22;19894;48.452;11.494;2023-03-16T04:13:25;18.40;34.40
33564;DHT22;19894;48.452;11.494;2023-03-16T04:15:58;18.40;34.40
33564;DHT22;19894;48.452;11.494;2023-03-16T04:18:24;18.40;34.30
33564;DHT22;19894;48.452;11.494;2023-03-16T04:20:50;18.40;34.40
33564;DHT22;19894;48.452;11.494;2023-03-16T04:23:18;18.40;34.40
33564;DHT22;19894;48.452;11.494;2023-03-16T04:25:43;18.40;34.40
33564;DHT22;19894;48.452;11.494;2023-03-16T04:28:09;18.40;34.40
33564;DHT22;19894;48.452;11.494;2023-03-16T04:30:35;18.40;34.40
33564;DHT22;19894;48.452;11.494;2023-03-16T04:33:01;18.40;34.40
33564;DHT22;19894;48.452;11.494;2023-03-16T04:35:26;18.40;34.90
33564;DHT22;19894;48.452;11.494;2023-03-16T04:37:52;18.40;34.40
33564;DHT22;19894;48.452;11.494;2023-03-16T04:40:18;18.40;34.40
33564;DHT22;19894;48.452;11.494;2023-03-16T04:42:44;18.40;34.30
33564;DHT22;19894;48.452;11.494;2023-03-16T04:45:10;18.40;34.30
33564;DHT22;19894;48.452;11.494;2023-03-16T04:47:36;18.40;34.30
33564;DHT22;19894;48.452;11.494;2023-03-16T04:50:02;18.40;34.30
33564;DHT22;19894;48.452;11.494;2023-03-16T04:52:30;18.40;34.30
33564;DHT22;19894;48.452;11.494;2023-03-16T04:54:56;18.40;34.30
33564;DHT22;19894;48.452;11.494;2023-03-16T04:57:21;18.40;34.20
33564;DHT22;19894;48.452;11.494;2023-03-16T04:59:47;18.40;34.20
33564;DHT22;19894;48.452;11.494;2023-03-16T05:02:12;18.40;34.20
33564;DHT22;19894;48.452;11.494;2023-03-16T05:04:38;18.40;34.10
33564;DHT22;19894;48.452;11.494;2023-03-16T05:07:04;18.40;34.00
33564;DHT22;19894;48.452;11.494;2023-03-16T05:09:30;18.40;34.10
33564;DHT22;19894;48.452;11.494;2023-03-16T05:11:56;18.40;34.00
33564;DHT22;19894;48.452;11.494;2023-03-16T05:14:22;18.40;34.20
33564;DHT22;19894;48.452;11.494;2023-03-16T05:16:47;18.40;34.20
33564;DHT22;19894;48.452;11.494;2023-03-16T05:19:13;18.40;34.20
33564;DHT22;19894;48.452;11.494;2023-03-16T05:21:39;18.40;34.20
33564;DHT22;19894;48.452;11.494;2023-03-16T05:24:05;18.40;34.20
33564;DHT22;19894;48.452;11.494;2023-03-16T05:26:31;18.40;34.20
33564;DHT22;19894;48.452;11.494;2023-03-16T05:28:56;18.40;34.20
33564;DHT22;19894;48.452;11.494;2023-03-16T05:31:22;18.40;34.20
33564;DHT22;19894;48.452;11.494;2023-03-16T05:33:51;18.40;34.20
33564;DHT22;19894;48.452;11.494;2023-03-16T05:36:17;18.40;34.20
33564;DHT22;19894;48.452;11.494;2023-03-16T05:38:42;18.40;34.20
33564;DHT22;19894;48.452;11.494;2023-03-16T05:41:08;18.40;34.10
33564;DHT22;19894;48.452;11.494;2023-03-16T05:43:33;18.40;34.10
33564;DHT22;19894;48.452;11.494;2023-03-16T05:45:59;18.40;34.10
33564;DHT22;19894;48.452;11.494;2023-03-16T05:48:24;18.40;34.10
33564;DHT22;19894;48.452;11.494;2023-03-16T05:50:51;18.40;34.10
33564;DHT22;19894;48.452;11.494;2023-03-16T05:53:17;18.40;34.00
33564;DHT22;19894;48.452;11.494;2023-03-16T05:55:42;18.40;34.00
33564;DHT22;19894;48.452;11.494;2023-03-16T05:58:08;18.40;34.00
33564;DHT22;19894;48.452;11.494;2023-03-16T06:00:34;18.40;34.00
33564;DHT22;19894;48.452;11.494;2023-03-16T06:03:00;18.40;33.90
33564;DHT22;19894;48.452;11.494;2023-03-16T06:05:26;18.40;33.90
33564;DHT22;19894;48.452;11.494;2023-03-16T06:07:53;18.40;33.80
33564;DHT22;19894;48.452;11.494;2023-03-16T06:10:18;18.40;33.80
33564;DHT22;19894;48.452;11.494;2023-03-16T06:12:44;18.40;34.00
33564;DHT22;19894;48.452;11.494;2023-03-16T06:15:10;18.40;33.90
33564;DHT22;19894;48.452;11.494;2023-03-16T06:17:37;18.40;33.90
33564;DHT22;19894;48.452;11.494;2023-03-16T06:20:04;18.40;34.00
33564;DHT22;19894;48.452;11.494;2023-03-16T06:22:35;18.40;34.00
33564;DHT22;19894;48.452;11.494;2023-03-16T06:25:00;18.40;34.00
33564;DHT22;19894;48.452;11.494;2023-03-16T06:27:26;18.40;34.00
33564;DHT22;19894;48.452;11.494;2023-03-16T06:29:53;18.40;34.60
33564;DHT22;19894;48.452;11.494;2023-03-16T06:32:18;18.40;34.00
33564;DHT22;19894;48.452;11.494;2023-03-16T06:34:44;18.40;34.00
33564;DHT22;19894;48.452;11.494;2023-03-16T06:37:09;18.40;34.00
33564;DHT22;19894;48.452;11.494;2023-03-16T06:39:35;18.40;34.00
33564;DHT22;19894;48.452;11.494;2023-03-16T06:42:00;18.40;33.90
33564;DHT22;19894;48.452;11.494;2023-03-16T06:44:26;18.40;34.00
33564;DHT22;19894;48.452;11.494;2023-03-16T06:46:52;18.40;33.90
33564;DHT22;19894;48.452;11.494;2023-03-16T06:49:17;18.40;34.00
33564;DHT22;19894;48.452;11.494;2023-03-16T06:51:43;18.40;33.90
33564;DHT22;19894;48.452;11.494;2023-03-16T06:54:08;18.40;34.00
33564;DHT22;19894;48.452;11.494;2023-03-16T06:56:34;18.40;33.90
33564;DHT22;19894;48.452;11.494;2023-03-16T06:58:59;18.40;33.90
33564;DHT22;19894;48.452;11.494;2023-03-16T07:01:26;18.40;33.90
33564;DHT22;19894;48.452;11.494;2023-03-16T07:03:51;18.40;34.40
33564;DHT22;19894;48.452;11.494;2023-03-16T07:06:17;18.40;33.80
33564;DHT22;19894;48.452;11.494;2023-03-16T07:08:43;18.40;33.80
33564;DHT22;19894;48.452;11.494;2023-03-16T07:11:08;18.40;33.80
33564;DHT22;19894;48.452;11.494;2023-03-16T07:13:35;18.40;33.80
33564;DHT22;19894;48.452;11.494;2023-03-16T07:16:01;18.40;34.40
33564;DHT22;19894;48.452;11.494;2023-03-16T07:18:27;18.40;33.90
33564;DHT22;19894;48.452;11.494;2023-03-16T07:20:54;18.40;33.90
33564;DHT22;19894;48.452;11.494;2023-03-16T07:23:20;18.40;33.90
33564;DHT22;19894;48.452;11.494;2023-03-16T07:25:46;18.40;33.90
33564;DHT22;19894;48.452;11.494;2023-03-16T07:28:11;18.40;34.00
33564;DHT22;19894;48.452;11.494;2023-03-16T07:30:37;18.40;34.00
33564;DHT22;19894;48.452;11.494;2023-03-16T07:33:03;18.40;34.00
33564;DHT22;19894;48.452;11.494;2023-03-16T07:35:30;18.40;34.00
33564;DHT22;19894;48.452;11.494;2023-03-16T07:37:55;18.40;34.00
33564;DHT22;19894;48.452;11.494;2023-03-16T07:40:21;18.40;34.00
33564;DHT22;19894;48.452;11.494;2023-03-16T07:42:47;18.40;34.00
33564;DHT22;19894;48.452;11.494;2023-03-16T07:45:13;18.40;34.00
33564;DHT22;19894;48.452;11.494;2023-03-16T07:47:39;18.40;33.90
33564;DHT22;19894;48.452;11.494;2023-03-16T07:50:06;18.40;34.00
33564;DHT22;19894;48.452;11.494;2023-03-16T07:52:33;18.40;34.00
33564;DHT22;19894;48.452;11.494;2023-03-16T07:54:58;18.40;34.00
33564;DHT22;19894;48.452;11.494;2023-03-16T07:57:24;18.40;34.00
33564;DHT22;19894;48.452;11.494;2023-03-16T07:59:50;18.40;34.10
33564;DHT22;19894;48.452;11.494;2023-03-16T08:02:18;18.40;34.00
33564;DHT22;19894;48.452;11.494;2023-03-16T08:04:44;18.40;34.00
33564;DHT22;19894;48.452;11.494;2023-03-16T08:07:11;18.40;34.00
33564;DHT22;19894;48.452;11.494;2023-03-16T08:09:37;18.40;34.00
33564;DHT22;19894;48.452;11.494;2023-03-16T08:12:04;18.40;34.00
33564;DHT22;19894;48.452;11.494;2023-03-16T08:14:31;18.40;34.00
33564;DHT22;19894;48.452;11.494;2023-03-16T08:16:59;18.40;34.10
33564;DHT22;19894;48.452;11.494;2023-03-16T08:19:25;18.40;34.10
33564;DHT22;19894;48.452;11.494;2023-03-16T08:21:50;18.40;34.60
33564;DHT22;19894;48.452;11.494;2023-03-16T08:24:16;18.40;34.20
33564;DHT22;19894;48.452;11.494;2023-03-16T08:26:41;18.40;34.20
33564;DHT22;19894;48.452;11.494;2023-03-16T08:29:07;18.40;34.20
33564;DHT22;19894;48.452;11.494;2023-03-16T08:31:33;18.40;34.10
33564;DHT22;19894;48.452;11.494;2023-03-16T08:33:59;18.40;34.10
33564;DHT22;19894;48.452;11.494;2023-03-16T08:36:25;18.40;34.10
33564;DHT22;19894;48.452;11.494;2023-03-16T08:38:53;18.40;34.10
33564;DHT22;19894;48.452;11.494;2023-03-16T08:41:20;18.40;34.00
33564;DHT22;19894;48.452;11.494;2023-03-16T08:43:46;18.40;34.10
33564;DHT22;19894;48.452;11.494;2023-03-16T08:46:12;18.40;34.10
33564;DHT22;19894;48.452;11.494;2023-03-16T08:48:39;18.40;34.10
33564;DHT22;19894;48.452;11.494;2023-03-16T08:51:06;18.40;34.00
33564;DHT22;19894;48.452;11.494;2023-03-16T08:53:32;18.40;34.00
33564;DHT22;19894;48.452;11.494;2023-03-16T08:56:02;18.40;34.00
33564;DHT22;19894;48.452;11.494;2023-03-16T08:58:30;18.40;34.00
33564;DHT22;19894;48.452;11.494;2023-03-16T09:00:57;18.40;33.80
33564;DHT22;19894;48.452;11.494;2023-03-16T09:03:23;18.40;33.70
33564;DHT22;19894;48.452;11.494;2023-03-16T09:05:50;18.40;33.70
33564;DHT22;19894;48.452;11.494;2023-03-16T09:08:15;18.50;33.70
33564;DHT22;19894;48.452;11.494;2023-03-16T09:10:42;18.50;33.70
33564;DHT22;19894;48.452;11.494;2023-03-16T09:13:09;18.50;33.80
33564;DHT22;19894;48.452;11.494;2023-03-16T09:15:35;18.50;33.70
33564;DHT22;19894;48.452;11.494;2023-03-16T09:18:00;18.50;33.80
33564;DHT22;19894;48.452;11.494;2023-03-16T09:20:28;18.50;33.90
33564;DHT22;19894;48.452;11.494;2023-03-16T09:22:54;18.50;34.00
33564;DHT22;19894;48.452;11.494;2023-03-16T09:25:21;18.50;34.00
33564;DHT22;19894;48.452;11.494;2023-03-16T09:27:47;18.40;34.00
33564;DHT22;19894;48.452;11.494;2023-03-16T09:30:13;18.50;34.10
33564;DHT22;19894;48.452;11.494;2023-03-16T09:32:39;18.50;34.10
33564;DHT22;19894;48.452;11.494;2023-03-16T09:35:05;18.40;34.10
33564;DHT22;19894;48.452;11.494;2023-03-16T09:37:32;18.50;34.10
33564;DHT22;19894;48.452;11.494;2023-03-16T09:39:57;18.40;34.10
33564;DHT22;19894;48.452;11.494;2023-03-16T09:42:39;18.40;34.10
33564;DHT22;19894;48.452;11.494;2023-03-16T09:45:36;18.40;34.10
33564;DHT22;19894;48.452;11.494;2023-03-16T09:48:04;18.40;34.10
33564;DHT22;19894;48.452;11.494;2023-03-16T09:50:35;18.40;34.10
33564;DHT22;19894;48.452;11.494;2023-03-16T09:53:24;18.40;33.90
33564;DHT22;19894;48.452;11.494;2023-03-16T09:55:57;18.40;34.10
33564;DHT22;19894;48.452;11.494;2023-03-16T09:58:24;18.40;34.00
33564;DHT22;19894;48.452;11.494;2023-03-16T10:06:48;18.40;33.80
33564;DHT22;19894;48.452;11.494;2023-03-16T10:09:27;18.50;33.70
33564;DHT22;19894;48.452;11.494;2023-03-16T10:11:57;18.50;33.70
33564;DHT22;19894;48.452;11.494;2023-03-16T10:14:48;18.50;33.70
33564;DHT22;19894;48.452;11.494;2023-03-16T10:17:27;18.50;33.70
33564;DHT22;19894;48.452;11.494;2023-03-16T10:20:07;18.50;33.70
33564;DHT22;19894;48.452;11.494;2023-03-16T10:22:37;18.50;33.80
33564;DHT22;19894;48.452;11.494;2023-03-16T10:25:34;18.50;33.90
33564;DHT22;19894;48.452;11.494;2023-03-16T10:28:00;18.50;33.80
33564;DHT22;19894;48.452;11.494;2023-03-16T10:30:28;18.50;33.90
33564;DHT22;19894;48.452;11.494;2023-03-16T10:33:00;18.50;33.90
33564;DHT22;19894;48.452;11.494;2023-03-16T10:38:39;18.40;33.80
33564;DHT22;19894;48.452;11.494;2023-03-16T10:43:46;18.40;33.80
33564;DHT22;19894;48.452;11.494;2023-03-16T10:46:13;18.40;33.90
33564;DHT22;19894;48.452;11.494;2023-03-16T10:48:39;18.40;33.80
33564;DHT22;19894;48.452;11.494;2023-03-16T10:51:12;18.40;33.90
33564;DHT22;19894;48.452;11.494;2023-03-16T10:53:42;18.40;33.80
33564;DHT22;19894;48.452;11.494;2023-03-16T10:56:19;18.40;33.80
33564;DHT22;19894;48.452;11.494;2023-03-16T10:58:45;18.40;33.80
33564;DHT22;19894;48.452;11.494;2023-03-16T11:01:18;18.40;33.70
33564;DHT22;19894;48.452;11.494;2023-03-16T11:03:48;18.40;33.60
33564;DHT22;19894;48.452;11.494;2023-03-16T11:06:27;18.40;33.30
33564;DHT22;19894;48.452;11.494;2023-03-16T11:09:23;18.40;33.20
33564;DHT22;19894;48.452;11.494;2023-03-16T11:11:48;18.50;33.00
33564;DHT22;19894;48.452;11.494;2023-03-16T11:14:14;18.50;33.00
33564;DHT22;19894;48.452;11.494;2023-03-16T11:17:02;18.50;33.00
33564;DHT22;19894;48.452;11.494;2023-03-16T11:19:32;18.50;33.10
33564;DHT22;19894;48.452;11.494;2023-03-16T11:22:09;18.50;33.40
33564;DHT22;19894;48.452;11.494;2023-03-16T11:28:03;18.50;33.50
33564;DHT22;19894;48.452;11.494;2023-03-16T11:30:47;18.50;33.60
33564;DHT22;19894;48.452;11.494;2023-03-16T11:33:16;18.50;33.50
33564;DHT22;19894;48.452;11.494;2023-03-16T11:38:19;18.40;33.50
33564;DHT22;19894;48.452;11.494;2023-03-16T11:43:28;18.40;33.50
33564;DHT22;19894;48.452;11.494;2023-03-16T11:46:18;18.40;33.60
33564;DHT22;19894;48.452;11.494;2023-03-16T11:57:15;18.50;33.60
33564;DHT22;19894;48.452;11.494;2023-03-16T12:05:30;18.40;33.40
33564;DHT22;19894;48.452;11.494;2023-03-16T12:11:20;18.40;32.90
33564;DHT22;19894;48.452;11.494;2023-03-16T12:14:10;18.50;32.90
33564;DHT22;19894;48.452;11.494;2023-03-16T12:19:21;18.50;32.80
33564;DHT22;19894;48.452;11.494;2023-03-16T12:22:29;18.50;33.00
33564;DHT22;19894;48.452;11.494;2023-03-16T12:24:47;18.50;33.10
33564;DHT22;19894;48.452;11.494;2023-03-16T12:27:16;18.50;33.30
33564;DHT22;19894;48.452;11.494;2023-03-16T12:29:55;18.50;33.30
33564;DHT22;19894;48.452;11.494;2023-03-16T12:32:46;18.50;33.20
33564;DHT22;19894;48.452;11.494;2023-03-16T12:35:23;18.50;33.40
33564;DHT22;19894;48.452;11.494;2023-03-16T12:40:32;18.50;33.50
33564;DHT22;19894;48.452;11.494;2023-03-16T12:43:26;18.50;33.50
33564;DHT22;19894;48.452;11.494;2023-03-16T12:46:03;18.40;33.50
33564;DHT22;19894;48.452;11.494;2023-03-16T12:48:53;18.40;33.50
33564;DHT22;19894;48.452;11.494;2023-03-16T12:51:19;18.40;33.50
33564;DHT22;19894;48.452;11.494;2023-03-16T12:56:20;18.40;33.50
33564;DHT22;19894;48.452;11.494;2023-03-16T12:58:56;18.40;33.50
33564;DHT22;19894;48.452;11.494;2023-03-16T13:01:27;18.40;33.50
33564;DHT22;19894;48.452;11.494;2023-03-16T13:04:05;18.50;33.50
33564;DHT22;19894;48.452;11.494;2023-03-16T13:06:33;18.50;33.30
33564;DHT22;19894;48.452;11.494;2023-03-16T13:09:00;18.50;33.30
33564;DHT22;19894;48.452;11.494;2023-03-16T13:11:26;18.50;33.10
33564;DHT22;19894;48.452;11.494;2023-03-16T13:16:30;18.50;32.80
33564;DHT22;19894;48.452;11.494;2023-03-16T13:18:56;18.50;32.80
33564;DHT22;19894;48.452;11.494;2023-03-16T13:21:40;18.50;32.80
33564;DHT22;19894;48.452;11.494;2023-03-16T13:24:14;18.50;32.90
33564;DHT22;19894;48.452;11.494;2023-03-16T13:26:54;18.50;33.10
33564;DHT22;19894;48.452;11.494;2023-03-16T13:29:26;18.50;33.20
33564;DHT22;19894;48.452;11.494;2023-03-16T13:31:53;18.50;33.30
33564;DHT22;19894;48.452;11.494;2023-03-16T13:34:49;18.50;33.30
33564;DHT22;19894;48.452;11.494;2023-03-16T13:37:17;18.50;33.30
33564;DHT22;19894;48.452;11.494;2023-03-16T13:39:51;18.50;33.40
33564;DHT22;19894;48.452;11.494;2023-03-16T13:42:19;18.50;33.40
33564;DHT22;19894;48.452;11.494;2023-03-16T13:44:45;18.50;33.40
33564;DHT22;19894;48.452;11.494;2023-03-16T13:47:15;18.50;33.40
33564;DHT22;19894;48.452;11.494;2023-03-16T13:49:45;18.40;33.30
33564;DHT22;19894;48.452;11.494;2023-03-16T13:52:26;18.40;33.30
33564;DHT22;19894;48.452;11.494;2023-03-16T13:54:52;18.40;33.30
33564;DHT22;19894;48.452;11.494;2023-03-16T13:57:20;18.40;33.30
33564;DHT22;19894;48.452;11.494;2023-03-16T13:59:46;18.40;33.30
33564;DHT22;19894;48.452;11.494;2023-03-16T14:02:20;18.40;33.50
33564;DHT22;19894;48.452;11.494;2023-03-16T14:04:47;18.50;33.20
33564;DHT22;19894;48.452;11.494;2023-03-16T14:07:18;18.50;33.00
33564;DHT22;19894;48.452;11.494;2023-03-16T14:09:45;18.50;33.00
33564;DHT22;19894;48.452;11.494;2023-03-16T14:12:17;18.50;33.00
33564;DHT22;19894;48.452;11.494;2023-03-16T14:14:46;18.50;32.90
33564;DHT22;19894;48.452;11.494;2023-03-16T14:17:19;18.50;32.70
33564;DHT22;19894;48.452;11.494;2023-03-16T14:19:57;18.50;32.50
33564;DHT22;19894;48.452;11.494;2023-03-16T14:22:29;18.50;32.40
33564;DHT22;19894;48.452;11.494;2023-03-16T14:24:57;18.50;32.60
33564;DHT22;19894;48.452;11.494;2023-03-16T14:27:42;18.50;32.80
33564;DHT22;19894;48.452;11.494;2023-03-16T14:30:22;18.50;33.00
33564;DHT22;19894;48.452;11.494;2023-03-16T14:33:01;18.50;33.00
33564;DHT22;19894;48.452;11.494;2023-03-16T14:35:39;18.50;33.00
33564;DHT22;19894;48.452;11.494;2023-03-16T14:38:40;18.50;33.20
33564;DHT22;19894;48.452;11.494;2023-03-16T14:41:23;18.50;33.10
33564;DHT22;19894;48.452;11.494;2023-03-16T14:43:53;18.50;33.10
33564;DHT22;19894;48.452;11.494;2023-03-16T14:46:27;18.50;33.10
33564;DHT22;19894;48.452;11.494;2023-03-16T14:49:07;18.50;33.30
33564;DHT22;19894;48.452;11.494;2023-03-16T14:51:37;18.50;33.10
33564;DHT22;19894;48.452;11.494;2023-03-16T14:54:15;18.50;33.20
33564;DHT22;19894;48.452;11.494;2023-03-16T14:56:42;18.40;33.10
33564;DHT22;19894;48.452;11.494;2023-03-16T14:59:08;18.50;33.30
33564;DHT22;19894;48.452;11.494;2023-03-16T15:01:35;18.40;33.20
33564;DHT22;19894;48.452;11.494;2023-03-16T15:04:01;18.50;33.60
33564;DHT22;19894;48.452;11.494;2023-03-16T15:06:27;18.50;33.00
33564;DHT22;19894;48.452;11.494;2023-03-16T15:08:55;18.50;32.80
33564;DHT22;19894;48.452;11.494;2023-03-16T15:11:21;18.50;32.80
33564;DHT22;19894;48.452;11.494;2023-03-16T15:13:49;18.50;32.50
33564;DHT22;19894;48.452;11.494;2023-03-16T15:16:15;18.50;32.50
33564;DHT22;19894;48.452;11.494;2023-03-16T15:18:41;18.50;32.30
33564;DHT22;19894;48.452;11.494;2023-03-16T15:21:15;18.50;32.30
33564;DHT22;19894;48.452;11.494;2023-03-16T15:23:43;18.60;32.40
33564;DHT22;19894;48.452;11.494;2023-03-16T15:26:13;18.50;32.40
33564;DHT22;19894;48.452;11.494;2023-03-16T15:28:40;18.50;32.50
33564;DHT22;19894;48.452;11.494;2023-03-16T15:31:05;18.50;32.70
33564;DHT22;19894;48.452;11.494;2023-03-16T15:33:33;18.50;32.80
33564;DHT22;19894;48.452;11.494;2023-03-16T15:36:01;18.50;32.80
33564;DHT22;19894;48.452;11.494;2023-03-16T15:38:34;18.50;32.80
33564;DHT22;19894;48.452;11.494;2023-03-16T15:41:09;18.50;32.80
33564;DHT22;19894;48.452;11.494;2023-03-16T15:43:35;18.50;32.90
33564;DHT22;19894;48.452;11.494;2023-03-16T15:46:00;18.50;32.80
33564;DHT22;19894;48.452;11.494;2023-03-16T15:48:26;18.50;32.90
33564;DHT22;19894;48.452;11.494;2023-03-16T15:50:54;18.50;32.90
33564;DHT22;19894;48.452;11.494;2023-03-16T15:53:26;18.50;33.00
33564;DHT22;19894;48.452;11.494;2023-03-16T15:55:55;18.50;33.10
33564;DHT22;19894;48.452;11.494;2023-03-16T15:58:25;18.50;33.10
33564;DHT22;19894;48.452;11.494;2023-03-16T16:00:56;18.50;33.00
33564;DHT22;19894;48.452;11.494;2023-03-16T16:03:23;18.50;32.90
33564;DHT22;19894;48.452;11.494;2023-03-16T16:05:49;18.50;33.10
33564;DHT22;19894;48.452;11.494;2023-03-16T16:08:14;18.50;32.90
33564;DHT22;19894;48.452;11.494;2023-03-16T16:10:41;18.50;32.70
33564;DHT22;19894;48.452;11.494;2023-03-16T16:13:27;18.50;32.60
33564;DHT22;19894;48.452;11.494;2023-03-16T16:15:54;18.50;32.30
33564;DHT22;19894;48.452;11.494;2023-03-16T16:18:34;18.50;32.30
33564;DHT22;19894;48.452;11.494;2023-03-16T16:21:03;18.50;32.20
33564;DHT22;19894;48.452;11.494;2023-03-16T16:23:29;18.50;32.20
33564;DHT22;19894;48.452;11.494;2023-03-16T16:26:02;18.50;32.10